National Weather Service Raw Text Product

Displaying AFOS PIL: TAFALO Received: 2018-02-09 23:29 UTC


700 
FTUS43 KDMX 092329
TAFALO
TAF
KALO 092329Z 1000/1024 34008KT P6SM SCT090 BKN200
     FM100900 34007KT P6SM OVC060
     FM101400 33008KT P6SM BKN200=